Time;durP1;ratioP1;P1;durP2;ratioP2;P2;SDS_P1;SDS_P2;PMS_P1;PMS_P2;Temp;Humidity;BMP_temperature;BMP_pressure;BME280_temperature;BME280_humidity;BME280_pressure;Samples;Min_cycle;Max_cycle;Signal;HPM_P1;HPM_P2
2021/08/18 00:01:09;;;;;;;26.13;14.75;;;14.30;99.90;;;;;;6159937;28;20033;-80
2021/08/18 00:04:10;;;;;;;23.23;13.05;;;;;;;;;;6160062;28;20027;-82
2021/08/18 00:07:11;;;;;;;21.55;13.02;;;;;;;;;;6177183;28;20023;-80
2021/08/18 00:10:12;;;;;;;25.70;13.30;;;;;;;;;;6159843;28;20026;-79
2021/08/18 00:13:13;;;;;;;22.58;14.52;;;14.70;99.90;;;;;;6176816;28;20019;-80
2021/08/18 00:16:14;;;;;;;22.88;13.93;;;14.50;99.90;;;;;;6176465;28;20050;-81
2021/08/18 00:19:15;;;;;;;21.30;13.23;;;;;;;;;;6176353;28;20110;-80
2021/08/18 00:22:16;;;;;;;21.70;13.93;;;;;;;;;;6176752;28;20058;-82
2021/08/18 00:25:17;;;;;;;20.55;13.27;;;;;;;;;;6176856;28;20409;-82
2021/08/18 00:28:17;;;;;;;22.10;13.00;;;14.70;99.90;;;;;;6159529;28;20023;-79
2021/08/18 00:31:18;;;;;;;26.35;15.48;;;14.50;99.90;;;;;;6176725;28;20054;-80
2021/08/18 00:34:19;;;;;;;22.48;13.10;;;14.50;99.90;;;;;;6159341;28;20495;-82
2021/08/18 00:37:19;;;;;;;25.58;13.70;;;14.50;99.90;;;;;;6176051;28;20047;-83
2021/08/18 00:40:20;;;;;;;22.77;14.05;;;14.50;99.90;;;;;;6176293;28;20018;-79
2021/08/18 00:43:21;;;;;;;25.63;15.20;;;14.40;99.90;;;;;;6159203;28;20117;-82
2021/08/18 00:46:21;;;;;;;25.33;15.65;;;14.40;99.90;;;;;;6174991;28;20023;-82
2021/08/18 00:49:25;;;;;;;24.55;14.43;;;14.40;99.90;;;;;;6176140;28;20031;-82
2021/08/18 00:52:26;;;;;;;21.45;14.55;;;14.30;99.90;;;;;;6176429;28;20046;-80
2021/08/18 00:55:27;;;;;;;24.35;15.90;;;14.60;99.90;;;;;;6158790;28;20031;-82
2021/08/18 00:58:28;;;;;;;25.65;14.93;;;14.40;99.90;;;;;;6174777;28;20058;-83
2021/08/18 01:01:28;;;;;;;25.08;14.68;;;14.30;99.90;;;;;;6158463;28;20038;-82
2021/08/18 01:04:29;;;;;;;24.40;13.98;;;14.30;99.90;;;;;;6174918;28;20030;-82
2021/08/18 01:07:30;;;;;;;23.45;15.60;;;14.50;99.90;;;;;;6175777;28;20030;-81
2021/08/18 01:10:33;;;;;;;26.42;15.05;;;14.40;99.90;;;;;;6175715;28;20069;-80
2021/08/18 01:13:33;;;;;;;26.33;14.80;;;14.20;99.90;;;;;;6159090;28;20126;-77
2021/08/18 01:16:42;;;;;;;26.10;15.35;;;14.20;99.90;;;;;;6174489;28;20040;-81
2021/08/18 01:19:43;;;;;;;29.60;17.20;;;14.10;99.90;;;;;;6175730;28;20033;-80
2021/08/18 01:22:43;;;;;;;23.95;15.27;;;14.00;99.90;;;;;;6176062;28;20034;-81
2021/08/18 01:25:45;;;;;;;25.52;15.65;;;14.20;99.90;;;;;;6175158;28;20376;-79
2021/08/18 01:28:45;;;;;;;27.17;16.92;;;14.30;99.90;;;;;;6157350;28;20364;-80
2021/08/18 01:31:46;;;;;;;25.08;15.90;;;14.00;99.90;;;;;;6175540;28;20027;-80
2021/08/18 01:34:46;;;;;;;21.15;15.35;;;14.10;99.90;;;;;;6174892;28;20023;-80
2021/08/18 01:37:47;;;;;;;29.13;16.88;;;14.00;99.90;;;;;;6157631;28;20067;-82
2021/08/18 01:40:51;;;;;;;28.25;16.45;;;14.10;99.90;;;;;;6173744;28;20027;-80
2021/08/18 01:43:51;;;;;;;24.05;15.10;;;14.10;99.90;;;;;;6158146;28;20050;-80
2021/08/18 01:46:52;;;;;;;27.63;16.08;;;14.00;99.90;;;;;;6174832;28;20066;-82
2021/08/18 01:49:52;;;;;;;27.80;16.85;;;14.20;99.90;;;;;;6173637;28;20027;-82
2021/08/18 01:52:53;;;;;;;26.75;16.15;;;14.20;99.90;;;;;;6175031;28;20027;-80
2021/08/18 01:55:58;;;;;;;25.98;15.50;;;14.20;99.90;;;;;;6174909;28;20043;-80
2021/08/18 01:58:59;;;;;;;29.63;16.30;;;14.10;99.90;;;;;;6158527;28;20031;-79
2021/08/18 02:01:59;;;;;;;25.05;14.93;;;14.20;99.90;;;;;;6158974;28;20501;-80
2021/08/18 02:05:00;;;;;;;25.92;15.18;;;14.10;99.90;;;;;;6175137;28;20074;-81
2021/08/18 02:08:00;;;;;;;25.98;16.23;;;14.20;99.90;;;;;;6174563;28;20054;-83
2021/08/18 02:11:01;;;;;;;27.92;15.48;;;14.10;99.90;;;;;;6141616;28;20027;-79
2021/08/18 02:14:01;;;;;;;23.85;14.85;;;14.10;99.90;;;;;;6157508;28;20045;-79
2021/08/18 02:17:03;;;;;;;30.42;17.30;;;14.00;99.90;;;;;;6174455;28;20034;-80
2021/08/18 02:20:05;;;;;;;22.25;14.73;;;14.00;99.90;;;;;;6173155;28;20022;-80
2021/08/18 02:23:05;;;;;;;26.70;15.88;;;14.10;99.90;;;;;;6157419;28;20481;-82
2021/08/18 02:26:06;;;;;;;24.45;15.32;;;14.20;99.90;;;;;;6174477;28;20031;-83
2021/08/18 02:29:06;;;;;;;28.50;16.60;;;14.10;99.90;;;;;;6174544;28;20110;-83
2021/08/18 02:32:07;;;;;;;26.20;16.17;;;;;;;;;;6174555;28;20089;-80
2021/08/18 02:35:09;;;;;;;26.17;16.15;;;14.20;99.90;;;;;;6173383;28;20030;-79
2021/08/18 02:38:09;;;;;;;26.33;15.25;;;14.10;99.90;;;;;;6157036;28;20055;-82
2021/08/18 02:41:10;;;;;;;28.50;16.55;;;14.10;99.90;;;;;;6175652;28;20027;-80
2021/08/18 02:44:10;;;;;;;30.85;16.90;;;14.10;99.90;;;;;;6179289;28;20019;-80
2021/08/18 02:47:11;;;;;;;31.65;16.35;;;14.00;99.90;;;;;;6145750;28;20026;-80
2021/08/18 02:50:13;;;;;;;25.75;16.48;;;13.90;99.90;;;;;;6178279;28;20023;-80
2021/08/18 02:53:14;;;;;;;27.15;16.42;;;14.00;99.90;;;;;;6161732;28;20591;-79
2021/08/18 02:56:14;;;;;;;28.70;16.42;;;13.80;99.90;;;;;;6177346;28;20074;-81
2021/08/18 02:59:15;;;;;;;27.35;16.50;;;14.20;99.90;;;;;;6178553;28;20078;-81
2021/08/18 03:02:15;;;;;;;28.88;18.42;;;13.90;99.90;;;;;;6178497;28;20031;-82
2021/08/18 03:05:16;;;;;;;31.15;17.77;;;14.00;99.90;;;;;;6178581;28;20858;-81
2021/08/18 03:08:17;;;;;;;25.48;16.08;;;14.20;99.90;;;;;;6160990;28;20027;-83
2021/08/18 03:11:17;;;;;;;25.15;15.82;;;14.10;99.90;;;;;;6178409;28;20019;-82
2021/08/18 03:14:18;;;;;;;29.80;16.90;;;;;;;;;;6178295;28;20026;-80
2021/08/18 03:17:19;;;;;;;26.90;16.35;;;14.00;99.90;;;;;;6177076;28;20030;-80
2021/08/18 03:20:20;;;;;;;22.25;16.17;;;;;;;;;;6178138;28;20433;-78
2021/08/18 03:23:20;;;;;;;24.20;15.52;;;13.80;99.90;;;;;;6177244;28;20031;-82
2021/08/18 03:26:21;;;;;;;23.58;14.95;;;;;;;;;;6178046;28;20062;-80
2021/08/18 03:29:22;;;;;;;26.83;16.45;;;;;;;;;;6177750;28;20065;-79
2021/08/18 03:32:23;;;;;;;22.63;14.98;;;;;;;;;;6177934;28;20496;-80
2021/08/18 03:35:24;;;;;;;27.23;16.58;;;;;;;;;;6177934;28;20034;-81
2021/08/18 03:38:25;;;;;;;25.98;16.50;;;;;;;;;;6177722;28;20130;-79
2021/08/18 03:41:26;;;;;;;26.25;15.85;;;14.10;99.90;;;;;;6176471;28;20027;-80
2021/08/18 03:44:26;;;;;;;26.75;15.88;;;13.90;99.90;;;;;;6160498;28;20361;-79
2021/08/18 03:47:27;;;;;;;24.50;15.50;;;13.90;99.90;;;;;;6177591;28;20019;-79
2021/08/18 03:50:28;;;;;;;27.73;16.13;;;14.10;99.90;;;;;;6177718;28;20458;-83
2021/08/18 03:53:28;;;;;;;24.63;15.95;;;14.10;99.90;;;;;;6176710;28;20385;-79
2021/08/18 03:56:29;;;;;;;24.98;15.75;;;13.90;99.90;;;;;;6177369;28;20036;-78
2021/08/18 03:59:29;;;;;;;29.27;16.65;;;14.10;99.90;;;;;;6176243;28;20030;-79
2021/08/18 04:02:30;;;;;;;28.85;16.33;;;14.10;99.90;;;;;;6176066;28;20023;-80
2021/08/18 04:05:31;;;;;;;25.42;15.85;;;13.90;99.90;;;;;;6177375;28;20453;-79
2021/08/18 04:08:31;;;;;;;26.73;16.67;;;13.90;99.90;;;;;;6175792;28;20070;-80
2021/08/18 04:11:32;;;;;;;26.38;16.05;;;14.10;99.90;;;;;;6176036;28;20460;-79
2021/08/18 04:14:32;;;;;;;25.83;15.90;;;13.90;99.90;;;;;;6176919;28;20033;-83
2021/08/18 04:17:33;;;;;;;24.40;15.35;;;13.90;99.90;;;;;;6177165;28;20472;-82
2021/08/18 04:20:34;;;;;;;28.48;16.42;;;14.00;99.90;;;;;;6176877;28;20030;-80
2021/08/18 04:23:34;;;;;;;21.48;14.60;;;14.00;99.90;;;;;;6177022;28;20050;-82
2021/08/18 04:26:35;;;;;;;25.05;16.08;;;14.20;99.90;;;;;;6176832;28;20031;-82
2021/08/18 04:29:42;;;;;;;23.70;15.73;;;13.90;99.90;;;;;;6159094;28;20077;-79
2021/08/18 04:32:42;;;;;;;25.10;16.02;;;13.90;99.90;;;;;;6176500;28;20117;-79
2021/08/18 04:35:43;;;;;;;21.23;14.75;;;13.90;99.90;;;;;;6175395;28;20038;-81
2021/08/18 04:38:43;;;;;;;25.95;15.40;;;14.00;99.90;;;;;;6176715;28;20150;-80
2021/08/18 04:41:44;;;;;;;25.52;15.57;;;13.90;99.90;;;;;;6176271;28;20026;-80
2021/08/18 04:44:45;;;;;;;22.33;14.65;;;14.00;99.90;;;;;;6158959;28;20030;-82
2021/08/18 04:47:46;;;;;;;23.65;14.23;;;14.00;99.90;;;;;;6175206;28;20027;-79
2021/08/18 04:50:46;;;;;;;24.38;15.65;;;13.90;99.90;;;;;;6176078;28;20034;-80
2021/08/18 04:53:47;;;;;;;25.27;15.23;;;13.90;99.90;;;;;;6158843;28;20098;-81
2021/08/18 04:56:47;;;;;;;23.20;14.90;;;13.90;99.90;;;;;;6175860;28;20038;-83
2021/08/18 04:59:48;;;;;;;22.77;15.13;;;14.00;99.90;;;;;;6158747;28;20129;-83
2021/08/18 05:02:48;;;;;;;24.00;15.13;;;13.90;99.90;;;;;;6174512;28;20026;-82
2021/08/18 05:05:49;;;;;;;22.02;14.90;;;14.00;99.90;;;;;;6175734;28;20035;-80
2021/08/18 05:08:50;;;;;;;23.40;13.98;;;14.40;99.90;;;;;;6174420;28;20432;-81
2021/08/18 05:11:50;;;;;;;25.13;14.45;;;13.90;99.90;;;;;;6175917;28;20063;-81
2021/08/18 05:14:51;;;;;;;24.23;14.77;;;13.90;99.90;;;;;;6175893;28;20077;-79
2021/08/18 05:17:51;;;;;;;22.38;15.00;;;14.00;99.90;;;;;;6175608;28;20030;-81
2021/08/18 05:20:52;;;;;;;22.55;14.30;;;14.00;99.90;;;;;;6174397;28;20094;-80
2021/08/18 05:23:52;;;;;;;24.23;14.73;;;13.90;99.90;;;;;;6174096;28;20027;-82
2021/08/18 05:26:53;;;;;;;23.58;13.95;;;14.00;99.90;;;;;;6158098;28;20585;-81
2021/08/18 05:29:54;;;;;;;25.48;13.85;;;14.00;99.90;;;;;;6175141;28;20054;-81
2021/08/18 05:32:55;;;;;;;20.95;13.57;;;;;;;;;;6175350;28;20027;-82
2021/08/18 05:35:56;;;;;;;24.45;14.52;;;13.90;99.90;;;;;;6174965;28;20472;-81
2021/08/18 05:38:57;;;;;;;25.00;13.82;;;14.00;99.90;;;;;;6175285;28;20129;-80
2021/08/18 05:41:57;;;;;;;20.70;13.57;;;14.00;99.90;;;;;;6175054;28;20026;-82
2021/08/18 05:44:59;;;;;;;21.08;14.55;;;14.00;99.90;;;;;;6175281;28;20081;-79
2021/08/18 05:47:59;;;;;;;22.92;13.88;;;14.10;99.90;;;;;;6157589;28;20030;-81
2021/08/18 05:51:00;;;;;;;24.15;13.38;;;14.10;99.90;;;;;;6175214;28;20035;-81
2021/08/18 05:54:01;;;;;;;19.77;12.95;;;14.00;99.90;;;;;;6173776;28;20025;-80
2021/08/18 05:57:01;;;;;;;18.88;12.95;;;14.10;99.90;;;;;;6173788;28;20035;-79
2021/08/18 06:00:06;;;;;;;20.80;12.85;;;14.00;99.90;;;;;;6174951;28;20023;-79
2021/08/18 06:03:07;;;;;;;20.08;13.15;;;14.30;99.90;;;;;;6173823;28;20027;-79
2021/08/18 06:06:07;;;;;;;23.02;12.65;;;14.20;99.90;;;;;;6174667;28;20392;-83
2021/08/18 06:09:08;;;;;;;20.00;12.90;;;14.20;99.90;;;;;;6174800;28;20049;-79
2021/08/18 06:12:08;;;;;;;19.02;13.02;;;14.20;99.90;;;;;;6157273;28;20023;-80
2021/08/18 06:15:09;;;;;;;22.33;13.88;;;14.30;99.90;;;;;;6175474;28;20082;-80
2021/08/18 06:18:10;;;;;;;18.95;13.07;;;14.70;99.90;;;;;;6178558;28;20023;-80
2021/08/18 06:21:10;;;;;;;19.08;12.80;;;14.60;99.90;;;;;;6178639;28;20023;-80
2021/08/18 06:24:27;;;;;;;18.05;12.45;;;15.30;99.90;;;;;;6162083;28;20031;-82
2021/08/18 06:27:28;;;;;;;18.67;12.52;;;14.50;99.90;;;;;;6179517;28;20029;-81
2021/08/18 06:30:29;;;;;;;18.80;13.30;;;14.60;99.90;;;;;;6178137;28;20031;-83
2021/08/18 06:33:29;;;;;;;18.95;12.43;;;14.70;99.90;;;;;;6179776;28;20033;-80
2021/08/18 06:36:30;;;;;;;19.55;12.63;;;14.80;99.90;;;;;;6179355;28;20047;-80
2021/08/18 06:39:31;;;;;;;17.27;11.35;;;14.70;99.90;;;;;;6162068;28;20030;-79
2021/08/18 06:42:32;;;;;;;16.75;11.10;;;15.00;99.90;;;;;;6178974;28;20019;-79
2021/08/18 06:45:32;;;;;;;16.73;11.25;;;15.30;99.90;;;;;;6161975;28;20385;-80
2021/08/18 06:48:34;;;;;;;19.02;11.35;;;14.80;99.90;;;;;;6178932;28;20417;-80
2021/08/18 06:51:35;;;;;;;15.82;10.80;;;14.90;99.90;;;;;;6178810;28;20513;-82
2021/08/18 06:54:35;;;;;;;16.65;11.20;;;15.30;99.90;;;;;;6179153;28;20037;-79
2021/08/18 06:57:36;;;;;;;14.93;9.93;;;15.10;99.90;;;;;;6178617;28;20054;-80
2021/08/18 07:00:37;;;;;;;18.13;9.48;;;;;;;;;;6161556;28;20030;-77
2021/08/18 07:03:38;;;;;;;14.48;9.45;;;;;;;;;;6178799;28;20368;-79
2021/08/18 07:06:39;;;;;;;14.60;9.02;;;;;;;;;;6179207;28;20026;-83
2021/08/18 07:09:40;;;;;;;11.20;7.97;;;14.80;99.90;;;;;;6161326;28;20118;-83
2021/08/18 07:12:41;;;;;;;12.30;7.97;;;;;;;;;;6178238;28;20018;-79
2021/08/18 07:15:41;;;;;;;12.77;7.70;;;14.80;99.90;;;;;;6178181;28;20027;-82
2021/08/18 07:18:42;;;;;;;11.30;7.70;;;14.90;99.90;;;;;;6178482;28;20418;-80
2021/08/18 07:21:43;;;;;;;11.23;7.53;;;;;;;;;;6161099;28;20064;-79
2021/08/18 07:24:44;;;;;;;13.07;7.40;;;;;;;;;;6178030;28;20023;-80
2021/08/18 07:27:45;;;;;;;12.88;8.48;;;;;;;;;;6178311;28;20073;-80
2021/08/18 07:30:45;;;;;;;11.23;7.35;;;15.00;99.90;;;;;;6160605;28;20023;-81
2021/08/18 07:33:46;;;;;;;12.60;7.85;;;14.90;99.90;;;;;;6177982;28;20022;-78
2021/08/18 07:36:46;;;;;;;10.48;7.80;;;14.90;99.90;;;;;;6177809;28;20058;-81
2021/08/18 07:39:47;;;;;;;11.35;7.63;;;15.30;99.90;;;;;;6144646;28;20029;-81
2021/08/18 07:42:48;;;;;;;11.80;7.13;;;15.00;99.90;;;;;;6177982;28;20511;-79
2021/08/18 07:45:48;;;;;;;11.48;6.72;;;15.10;99.90;;;;;;6160540;28;20465;-81
2021/08/18 07:48:49;;;;;;;9.77;6.90;;;15.40;99.90;;;;;;6160428;28;20453;-83
2021/08/18 07:51:50;;;;;;;9.20;6.07;;;15.50;99.90;;;;;;6160290;28;20031;-81
2021/08/18 07:54:50;;;;;;;10.70;7.00;;;15.70;99.90;;;;;;6160865;28;20034;-80
2021/08/18 07:57:51;;;;;;;9.02;6.78;;;15.90;99.90;;;;;;6160310;28;20093;-79
2021/08/18 08:00:51;;;;;;;9.43;6.10;;;16.40;99.90;;;;;;6177509;28;20034;-82
2021/08/18 08:03:52;;;;;;;12.68;5.65;;;17.00;99.90;;;;;;6160052;28;20034;-83
2021/08/18 08:06:53;;;;;;;7.22;5.25;;;18.80;99.90;;;;;;6159956;28;20019;-83
2021/08/18 08:09:53;;;;;;;10.35;5.70;;;18.70;99.90;;;;;;6144008;28;20073;-81
2021/08/18 08:12:54;;;;;;;6.60;5.00;;;19.30;99.90;;;;;;6160279;28;20350;-80
2021/08/18 08:15:54;;;;;;;7.38;5.03;;;19.50;99.90;;;;;;6159734;28;20136;-80
2021/08/18 08:18:55;;;;;;;6.40;4.28;;;19.60;99.90;;;;;;6177094;28;20035;-79
2021/08/18 08:21:56;;;;;;;6.07;4.15;;;19.60;99.90;;;;;;6160010;28;20058;-82
2021/08/18 08:24:56;;;;;;;5.72;4.13;;;19.70;99.90;;;;;;6176712;28;20539;-81
2021/08/18 08:27:57;;;;;;;5.65;4.07;;;19.50;99.90;;;;;;6176904;28;20031;-80
2021/08/18 08:30:57;;;;;;;5.50;4.03;;;19.70;99.90;;;;;;6176771;28;20023;-84
2021/08/18 08:33:58;;;;;;;6.07;4.60;;;19.80;99.90;;;;;;6159341;28;20041;-80
2021/08/18 08:36:59;;;;;;;6.25;4.25;;;20.50;99.90;;;;;;6176477;28;20058;-82
2021/08/18 08:39:59;;;;;;;7.10;4.13;;;21.70;99.90;;;;;;6158847;28;20059;-79
2021/08/18 08:43:00;;;;;;;5.72;4.07;;;22.80;99.90;;;;;;6159083;28;20023;-81
2021/08/18 08:46:00;;;;;;;5.30;4.15;;;23.10;97.30;;;;;;6176170;28;20027;-79
2021/08/18 08:49:01;;;;;;;4.03;3.53;;;22.90;97.00;;;;;;6159082;28;20062;-79
2021/08/18 08:52:02;;;;;;;5.03;3.40;;;23.00;97.00;;;;;;6158748;28;20022;-80
2021/08/18 08:55:04;;;;;;;4.97;4.00;;;23.40;97.90;;;;;;6158950;28;20038;-82
2021/08/18 08:58:04;;;;;;;;;;;23.50;96.40;;;;;;6159450;28;20166;-83
2021/08/18 09:01:05;;;;;;;6.28;3.90;;;23.30;95.20;;;;;;6142890;28;19917;-81
2021/08/18 09:04:05;;;;;;;4.65;3.33;;;23.50;95.00;;;;;;6158516;28;20102;-83
2021/08/18 09:07:11;;;;;;;4.97;4.15;;;23.50;94.10;;;;;;6175997;28;20102;-82
2021/08/18 09:10:11;;;;;;;7.03;4.10;;;23.30;95.50;;;;;;6175876;28;20030;-80
2021/08/18 09:13:16;;;;;;;5.60;4.05;;;22.80;96.50;;;;;;6158314;28;20065;-83
2021/08/18 09:16:19;;;;;;;6.20;3.78;;;22.50;96.70;;;;;;6175839;28;20023;-82
2021/08/18 09:19:19;;;;;;;4.95;4.10;;;22.10;97.50;;;;;;6175752;28;20023;-81
2021/08/18 09:22:21;;;;;;;5.65;4.30;;;21.70;98.60;;;;;;6158377;28;20453;-82
2021/08/18 09:25:23;;;;;;;5.13;3.25;;;21.50;99.40;;;;;;6158223;28;20026;-82
2021/08/18 09:28:24;;;;;;;3.92;3.33;;;;;;;;;;6158325;28;20023;-80
2021/08/18 09:31:25;;;;;;;4.40;3.58;;;;;;;;;;6175396;28;20032;-83
2021/08/18 09:34:26;;;;;;;5.30;3.60;;;22.10;99.90;;;;;;6176287;28;20110;-80
2021/08/18 09:37:27;;;;;;;3.30;3.00;;;22.40;99.90;;;;;;6176229;28;20377;-83
2021/08/18 09:40:32;;;;;;;4.63;3.83;;;22.50;99.90;;;;;;6158544;28;20077;-80
2021/08/18 09:43:34;;;;;;;3.97;2.92;;;;;;;;;;6158525;28;20039;-81
2021/08/18 09:46:36;;;;;;;3.80;3.10;;;22.60;99.90;;;;;;6175355;28;20027;-80
2021/08/18 09:49:37;;;;;;;2.75;2.55;;;22.50;96.20;;;;;;6174183;28;20024;-81
2021/08/18 09:52:37;;;;;;;4.40;2.95;;;22.40;96.90;;;;;;6157784;28;20101;-80
2021/08/18 09:55:41;;;;;;;4.13;3.20;;;22.50;96.80;;;;;;6157717;28;20031;-83
2021/08/18 09:58:54;;;;;;;3.65;3.10;;;22.10;95.30;;;;;;6158005;28;20022;-80
2021/08/18 10:01:54;;;;;;;3.15;2.65;;;22.30;97.10;;;;;;6175146;28;20042;-80
2021/08/18 10:04:55;;;;;;;6.10;2.92;;;22.50;96.60;;;;;;6157815;28;20026;-79
2021/08/18 10:07:56;;;;;;;3.27;2.97;;;22.60;96.50;;;;;;6157647;28;20030;-82
2021/08/18 10:11:00;;;;;;;3.67;2.60;;;22.50;96.80;;;;;;6157565;28;20022;-83
2021/08/18 10:14:01;;;;;;;4.78;3.08;;;22.40;96.90;;;;;;6143294;28;20557;-79
2021/08/18 10:17:02;;;;;;;5.50;3.13;;;22.20;97.00;;;;;;6157549;28;20039;-80
2021/08/18 10:20:03;;;;;;;5.00;3.85;;;22.00;97.40;;;;;;6174750;28;20105;-80
2021/08/18 10:23:08;;;;;;;6.60;3.80;;;21.90;97.70;;;;;;6174786;28;20027;-81
2021/08/18 10:26:15;;;;;;;4.82;3.47;;;21.70;97.30;;;;;;6157578;28;20027;-79
2021/08/18 10:29:30;;;;;;;4.43;3.30;;;21.50;97.70;;;;;;6157715;28;20050;-80
2021/08/18 10:32:35;;;;;;;6.07;3.67;;;21.40;97.60;;;;;;6159195;28;20548;-79
2021/08/18 10:35:36;;;;;;;6.13;4.10;;;21.40;98.60;;;;;;6157147;28;20129;-79
2021/08/18 10:38:36;;;;;;;6.00;4.05;;;21.60;98.20;;;;;;6174691;28;20105;-82
2021/08/18 10:42:04;;;;;;;5.93;3.85;;;21.60;98.10;;;;;;6174420;28;20023;-80
2021/08/18 10:45:23;;;;;;;6.75;3.72;;;21.70;99.90;;;;;;6157551;28;20380;-83
2021/08/18 10:48:58;;;;;;;3.95;3.53;;;21.70;97.90;;;;;;6174441;28;20134;-81
2021/08/18 10:51:58;;;;;;;5.18;4.05;;;21.90;98.50;;;;;;6174883;28;20022;-80
2021/08/18 10:55:09;;;;;;;5.93;3.80;;;22.00;98.50;;;;;;6174037;28;20026;-81
2021/08/18 10:58:25;;;;;;;4.18;3.20;;;21.90;98.60;;;;;;6156912;28;20026;-80
2021/08/18 11:01:42;;;;;;;5.88;3.53;;;21.90;98.30;;;;;;6160044;28;20019;-81
2021/08/18 11:04:49;;;;;;;5.22;3.50;;;21.80;97.70;;;;;;6161448;28;20026;-81
2021/08/18 11:08:05;;;;;;;6.35;3.70;;;21.60;98.70;;;;;;6161434;28;20038;-80
2021/08/18 11:11:09;;;;;;;5.32;3.95;;;21.50;99.00;;;;;;6178596;28;20465;-80
2021/08/18 11:14:09;;;;;;;5.10;3.70;;;21.80;98.90;;;;;;6178289;28;20032;-80
2021/08/18 11:17:10;;;;;;;4.90;3.65;;;21.80;98.10;;;;;;6178583;28;20103;-81
2021/08/18 11:20:21;;;;;;;5.60;3.45;;;21.90;99.00;;;;;;6161680;28;20039;-81
2021/08/18 11:23:23;;;;;;;5.00;3.35;;;21.80;98.30;;;;;;6161265;28;20018;-80
2021/08/18 11:26:25;;;;;;;;;;;21.80;99.00;;;;;;6161340;28;20117;-79
2021/08/18 11:29:26;;;;;;;5.30;3.50;;;21.70;98.30;;;;;;6178286;28;19902;-80
2021/08/18 11:32:26;;;;;;;4.85;3.20;;;21.90;98.20;;;;;;6160569;28;20031;-79
2021/08/18 11:35:34;;;;;;;4.15;3.10;;;21.40;98.30;;;;;;6177833;28;20473;-80
2021/08/18 11:38:34;;;;;;;6.20;3.53;;;21.80;97.30;;;;;;6177700;28;20047;-80
2021/08/18 11:41:40;;;;;;;4.10;3.10;;;21.60;97.60;;;;;;6177938;28;20023;-80
2021/08/18 11:44:44;;;;;;;3.45;3.10;;;21.60;97.10;;;;;;6177718;28;20030;-81
2021/08/18 11:47:46;;;;;;;5.63;3.63;;;21.60;99.90;;;;;;6177936;28;20027;-82
2021/08/18 11:50:51;;;;;;;4.78;3.10;;;21.80;99.90;;;;;;6160731;28;20357;-82
2021/08/18 11:53:53;;;;;;;3.42;2.75;;;21.90;99.90;;;;;;6177783;28;20043;-82
2021/08/18 11:57:07;;;;;;;3.42;2.90;;;22.00;99.90;;;;;;6177292;28;20504;-82
2021/08/18 12:00:08;;;;;;;3.22;2.90;;;21.90;99.90;;;;;;6160168;28;20441;-83
2021/08/18 12:03:09;;;;;;;3.47;2.65;;;;;;;;;;6144209;28;20027;-81
2021/08/18 12:06:10;;;;;;;3.42;2.47;;;22.80;99.90;;;;;;6177659;28;20468;-81
2021/08/18 12:09:21;;;;;;;3.72;2.83;;;23.20;99.90;;;;;;6159934;28;20023;-81
2021/08/18 12:12:22;;;;;;;3.70;2.85;;;22.90;99.90;;;;;;6159164;28;20373;-79
2021/08/18 12:15:23;;;;;;;2.42;2.22;;;23.00;98.80;;;;;;6159902;28;20042;-79
2021/08/18 12:18:31;;;;;;;3.00;2.58;;;22.80;99.10;;;;;;6159623;28;20510;-80
2021/08/18 12:21:31;;;;;;;4.07;2.50;;;22.90;99.00;;;;;;6159456;28;20101;-83
2021/08/18 12:24:32;;;;;;;3.22;2.60;;;22.90;95.40;;;;;;6176769;28;20457;-80
2021/08/18 12:27:32;;;;;;;2.63;2.42;;;23.30;94.60;;;;;;6159838;28;20023;-78
2021/08/18 12:30:33;;;;;;;2.72;2.28;;;23.60;94.00;;;;;;6159205;28;20058;-82
2021/08/18 12:33:34;;;;;;;3.30;2.30;;;24.10;94.30;;;;;;6159419;28;20453;-81
2021/08/18 12:36:34;;;;;;;3.15;2.78;;;24.00;99.90;;;;;;6158821;28;20088;-83
2021/08/18 12:39:41;;;;;;;2.60;2.40;;;23.80;93.40;;;;;;6159452;28;20023;-81
2021/08/18 12:42:43;;;;;;;3.30;2.50;;;24.10;93.30;;;;;;6143415;28;20033;-82
2021/08/18 12:45:47;;;;;;;3.08;2.53;;;23.90;93.60;;;;;;6176143;28;20027;-81
2021/08/18 12:48:48;;;;;;;3.28;2.50;;;23.90;93.10;;;;;;6159126;28;20053;-81
2021/08/18 12:51:49;;;;;;;4.97;2.73;;;23.80;93.10;;;;;;6176148;28;20022;-80
2021/08/18 12:54:49;;;;;;;3.00;2.70;;;23.80;94.10;;;;;;6176115;28;20033;-80
2021/08/18 12:57:50;;;;;;;2.73;2.53;;;23.90;93.20;;;;;;6158818;28;20042;-82
2021/08/18 13:00:51;;;;;;;4.32;2.78;;;24.10;94.10;;;;;;6176409;28;20030;-80
2021/08/18 13:03:51;;;;;;;4.32;3.40;;;24.30;92.80;;;;;;6175933;28;20053;-80
2021/08/18 13:06:52;;;;;;;3.67;3.03;;;24.30;92.40;;;;;;6175651;28;20031;-81
2021/08/18 13:09:52;;;;;;;4.67;3.43;;;24.20;92.50;;;;;;6158477;28;20037;-80
2021/08/18 13:12:53;;;;;;;3.53;2.77;;;24.50;92.10;;;;;;6176133;28;20045;-79
2021/08/18 13:15:54;;;;;;;4.90;3.43;;;24.50;92.40;;;;;;6158435;28;20041;-80
2021/08/18 13:18:54;;;;;;;4.50;3.27;;;24.40;92.40;;;;;;6158844;28;20030;-79
2021/08/18 13:21:55;;;;;;;4.23;2.90;;;24.30;99.90;;;;;;6175733;28;20065;-79
2021/08/18 13:24:55;;;;;;;3.80;3.37;;;24.30;93.20;;;;;;6158811;28;20022;-83
2021/08/18 13:27:56;;;;;;;3.93;3.10;;;24.30;92.20;;;;;;6175834;28;20457;-82
2021/08/18 13:30:57;;;;;;;6.80;3.20;;;24.10;99.90;;;;;;6175463;28;20026;-80
2021/08/18 13:33:58;;;;;;;3.83;3.20;;;24.20;99.90;;;;;;6175570;28;20022;-81
2021/08/18 13:36:59;;;;;;;4.00;2.87;;;;;;;;;;6157538;28;20527;-80
2021/08/18 13:39:59;;;;;;;3.72;3.00;;;24.00;99.90;;;;;;6175355;28;20019;-78
2021/08/18 13:43:00;;;;;;;4.20;2.92;;;23.80;99.90;;;;;;6175291;28;20019;-82
2021/08/18 13:46:01;;;;;;;3.67;3.13;;;24.00;99.90;;;;;;6157520;28;20031;-81
2021/08/18 13:49:02;;;;;;;2.85;2.58;;;23.90;99.90;;;;;;6175186;28;20019;-81
2021/08/18 13:52:03;;;;;;;4.35;3.10;;;23.80;93.40;;;;;;6175071;28;20030;-81
2021/08/18 13:55:04;;;;;;;2.80;2.42;;;23.80;99.90;;;;;;6174879;28;20046;-82
2021/08/18 13:58:05;;;;;;;3.95;2.60;;;23.70;99.90;;;;;;6174665;28;20046;-79
2021/08/18 14:01:06;;;;;;;3.72;3.03;;;;;;;;;;6157969;28;20109;-77
2021/08/18 14:04:07;;;;;;;4.22;2.83;;;;;;;;;;6174628;28;20512;-80
2021/08/18 14:07:08;;;;;;;2.80;2.45;;;;;;;;;;6174831;28;20027;-80
2021/08/18 14:10:09;;;;;;;3.08;2.60;;;24.10;99.90;;;;;;6174581;28;20041;-81
2021/08/18 14:13:10;;;;;;;5.23;3.03;;;24.10;99.20;;;;;;6157200;28;20027;-79
2021/08/18 14:16:10;;;;;;;5.13;2.90;;;24.00;98.40;;;;;;6175017;28;20034;-81
2021/08/18 14:19:11;;;;;;;3.50;3.00;;;24.00;94.40;;;;;;6157334;28;20042;-79
2021/08/18 14:22:11;;;;;;;2.85;2.45;;;24.20;93.00;;;;;;6174555;28;20112;-79
2021/08/18 14:25:12;;;;;;;3.40;2.40;;;24.20;93.90;;;;;;6174796;28;20098;-82
2021/08/18 14:28:13;;;;;;;4.50;2.80;;;24.00;92.30;;;;;;6174517;28;20027;-79
2021/08/18 14:31:13;;;;;;;3.13;2.47;;;23.90;93.10;;;;;;6174656;28;20085;-80
2021/08/18 14:34:14;;;;;;;3.60;2.63;;;23.50;99.90;;;;;;6157695;28;20038;-79
2021/08/18 14:37:14;;;;;;;3.00;2.70;;;23.60;94.00;;;;;;6177056;28;20138;-81
2021/08/18 14:40:15;;;;;;;4.63;2.80;;;23.30;94.20;;;;;;6161899;28;20030;-82
2021/08/18 14:43:16;;;;;;;2.93;2.63;;;23.10;94.70;;;;;;6179668;28;20046;-80
2021/08/18 14:46:17;;;;;;;3.33;2.73;;;23.00;94.90;;;;;;6179425;28;20019;-80
2021/08/18 14:49:17;;;;;;;3.08;2.53;;;22.80;94.70;;;;;;6179011;28;20018;-80
2021/08/18 14:52:18;;;;;;;5.60;2.78;;;22.80;94.80;;;;;;6178710;28;20106;-80
2021/08/18 14:55:18;;;;;;;3.08;2.25;;;23.40;95.80;;;;;;6178733;28;20377;-83
2021/08/18 14:58:19;;;;;;;4.50;3.00;;;22.40;95.40;;;;;;6161557;28;20026;-80
2021/08/18 15:01:20;;;;;;;3.00;2.30;;;22.40;96.80;;;;;;6178901;28;20027;-81
2021/08/18 15:04:20;;;;;;;2.67;2.35;;;22.40;95.90;;;;;;6178377;28;20023;-82
2021/08/18 15:07:21;;;;;;;2.90;2.58;;;22.40;96.10;;;;;;6178668;28;20102;-80
2021/08/18 15:10:21;;;;;;;2.38;2.17;;;22.30;95.50;;;;;;6161462;28;20022;-78
2021/08/18 15:13:22;;;;;;;2.80;2.45;;;22.20;96.00;;;;;;6161380;28;20105;-83
2021/08/18 15:16:23;;;;;;;2.53;2.20;;;22.20;95.90;;;;;;6160962;28;20023;-84
2021/08/18 15:19:23;;;;;;;2.50;2.30;;;22.20;96.60;;;;;;6161178;28;20519;-79
2021/08/18 15:22:25;;;;;;;3.15;2.83;;;22.10;96.20;;;;;;6161245;28;20035;-83
2021/08/18 15:25:26;;;;;;;2.47;2.28;;;22.20;97.00;;;;;;6161163;28;20051;-80
2021/08/18 15:28:28;;;;;;;3.03;2.53;;;22.10;96.70;;;;;;6178105;28;20023;-79
2021/08/18 15:31:29;;;;;;;2.70;2.30;;;22.20;97.10;;;;;;6161126;28;20026;-80
2021/08/18 15:34:31;;;;;;;3.33;2.55;;;22.10;96.70;;;;;;6160888;28;20086;-80
2021/08/18 15:37:31;;;;;;;;;;;22.10;97.10;;;;;;6152974;28;20540;-81
2021/08/18 15:40:32;;;;;;;2.28;2.08;;;22.10;97.00;;;;;;6153953;29;19902;-83
2021/08/18 15:43:36;;;;;;;2.67;2.40;;;22.20;96.50;;;;;;6152743;28;20023;-78
2021/08/18 15:46:38;;;;;;;3.80;2.20;;;22.40;99.90;;;;;;6152427;28;20445;-79